Aviation Digital Data Service (ADDS)

Output produced by METARs form (0358 UTC 26 June 2019)
found at http://www.aviationweather.gov/metar/data/
 
Forecast for: WMKE (KERTEH , MY)
Text: TAF WMKE 252300Z 2600/2700 17008KT 9999 FEW015
Forecast period: 0000 to 0500 UTC 26 June 2019
Forecast type: FROM: standard forecast or significant change
Winds: from the S (170 degrees) at 9 MPH (8 knots; 4.1 m/s)
Visibility: 6 or more miles 10+ km)
Ceiling: at least 12,000 feet AGL
Clouds: few clouds at 1500 feet AGL
Weather: no significant weather forecast for this period
Text: BECMG 2605/2606 VRB03KT FEW005 FEW014CB SCT022
Forecast period: 0500 UTC 26 June 2019 to 0000 UTC 27 June 2019
Forecast type: BECOMING: Conditions expected to become as follows by 0600 UTC 26 June 2019
Winds: variable direction winds at 3 MPH (3 knots; 1.5 m/s)
Visibility: 6 or more miles 10+ km)
Ceiling: at least 12,000 feet AGL
Clouds: few clouds at 500 feet AGL
few clouds at 1400 feet AGL
scattered clouds at 2200 feet AGL
Weather: no significant weather forecast for this period